sensor_id;sensor_type;location;lat;lon;timestamp;P1;durP1;ratioP1;P2;durP2;ratioP2
14688;SDS011;7432;48.728;9.154;2023-09-07T00:01:53;9.07;;;8.37;;
14688;SDS011;7432;48.728;9.154;2023-09-07T00:04:19;9.10;;;8.30;;
14688;SDS011;7432;48.728;9.154;2023-09-07T00:06:47;9.23;;;8.53;;
14688;SDS011;7432;48.728;9.154;2023-09-07T00:09:14;9.13;;;8.47;;
14688;SDS011;7432;48.728;9.154;2023-09-07T00:11:41;9.03;;;8.23;;
14688;SDS011;7432;48.728;9.154;2023-09-07T00:14:07;8.93;;;8.17;;
14688;SDS011;7432;48.728;9.154;2023-09-07T00:16:35;8.60;;;8.00;;
14688;SDS011;7432;48.728;9.154;2023-09-07T00:19:03;9.03;;;8.23;;
14688;SDS011;7432;48.728;9.154;2023-09-07T00:21:29;8.47;;;7.97;;
14688;SDS011;7432;48.728;9.154;2023-09-07T00:23:56;8.87;;;8.17;;
14688;SDS011;7432;48.728;9.154;2023-09-07T00:26:22;8.63;;;8.00;;
14688;SDS011;7432;48.728;9.154;2023-09-07T00:28:49;8.90;;;8.13;;
14688;SDS011;7432;48.728;9.154;2023-09-07T00:31:15;9.30;;;8.40;;
14688;SDS011;7432;48.728;9.154;2023-09-07T00:33:43;8.53;;;8.00;;
14688;SDS011;7432;48.728;9.154;2023-09-07T00:36:09;8.83;;;8.23;;
14688;SDS011;7432;48.728;9.154;2023-09-07T00:38:36;9.03;;;8.23;;
14688;SDS011;7432;48.728;9.154;2023-09-07T00:41:02;8.47;;;7.67;;
14688;SDS011;7432;48.728;9.154;2023-09-07T00:43:29;8.60;;;7.80;;
14688;SDS011;7432;48.728;9.154;2023-09-07T00:45:55;8.57;;;7.87;;
14688;SDS011;7432;48.728;9.154;2023-09-07T00:48:22;8.63;;;7.93;;
14688;SDS011;7432;48.728;9.154;2023-09-07T00:50:50;8.40;;;7.77;;
14688;SDS011;7432;48.728;9.154;2023-09-07T00:53:16;8.77;;;8.00;;
14688;SDS011;7432;48.728;9.154;2023-09-07T00:55:43;8.90;;;8.30;;
14688;SDS011;7432;48.728;9.154;2023-09-07T00:58:10;8.17;;;7.57;;
14688;SDS011;7432;48.728;9.154;2023-09-07T01:00:37;8.60;;;8.00;;
14688;SDS011;7432;48.728;9.154;2023-09-07T01:03:05;8.70;;;8.10;;
14688;SDS011;7432;48.728;9.154;2023-09-07T01:05:32;8.70;;;8.10;;
14688;SDS011;7432;48.728;9.154;2023-09-07T01:08:10;8.63;;;8.03;;
14688;SDS011;7432;48.728;9.154;2023-09-07T01:10:42;9.20;;;8.40;;
14688;SDS011;7432;48.728;9.154;2023-09-07T01:13:08;8.73;;;8.03;;
14688;SDS011;7432;48.728;9.154;2023-09-07T01:15:35;8.80;;;8.00;;
14688;SDS011;7432;48.728;9.154;2023-09-07T01:18:02;9.03;;;8.43;;
14688;SDS011;7432;48.728;9.154;2023-09-07T01:20:29;8.57;;;7.97;;
14688;SDS011;7432;48.728;9.154;2023-09-07T01:22:59;8.70;;;8.00;;
14688;SDS011;7432;48.728;9.154;2023-09-07T01:25:26;8.93;;;8.13;;
14688;SDS011;7432;48.728;9.154;2023-09-07T01:27:53;8.90;;;8.30;;
14688;SDS011;7432;48.728;9.154;2023-09-07T01:30:20;9.07;;;8.43;;
14688;SDS011;7432;48.728;9.154;2023-09-07T01:32:46;8.53;;;7.93;;
14688;SDS011;7432;48.728;9.154;2023-09-07T01:35:14;9.47;;;8.67;;
14688;SDS011;7432;48.728;9.154;2023-09-07T01:37:41;9.30;;;8.60;;
14688;SDS011;7432;48.728;9.154;2023-09-07T01:40:09;8.43;;;7.83;;
14688;SDS011;7432;48.728;9.154;2023-09-07T01:42:36;9.00;;;8.40;;
14688;SDS011;7432;48.728;9.154;2023-09-07T01:45:03;8.60;;;8.00;;
14688;SDS011;7432;48.728;9.154;2023-09-07T01:47:30;9.00;;;8.30;;
14688;SDS011;7432;48.728;9.154;2023-09-07T01:49:56;8.67;;;8.13;;
14688;SDS011;7432;48.728;9.154;2023-09-07T01:52:23;8.57;;;7.97;;
14688;SDS011;7432;48.728;9.154;2023-09-07T01:54:49;8.90;;;8.20;;
14688;SDS011;7432;48.728;9.154;2023-09-07T01:57:17;9.40;;;8.67;;
14688;SDS011;7432;48.728;9.154;2023-09-07T01:59:43;8.47;;;7.97;;
14688;SDS011;7432;48.728;9.154;2023-09-07T02:02:10;8.20;;;7.60;;
14688;SDS011;7432;48.728;9.154;2023-09-07T02:04:36;8.67;;;8.17;;
14688;SDS011;7432;48.728;9.154;2023-09-07T02:07:02;8.73;;;8.03;;
14688;SDS011;7432;48.728;9.154;2023-09-07T02:09:31;8.30;;;7.80;;
14688;SDS011;7432;48.728;9.154;2023-09-07T02:11:57;8.90;;;8.20;;
14688;SDS011;7432;48.728;9.154;2023-09-07T02:14:25;8.70;;;8.20;;
14688;SDS011;7432;48.728;9.154;2023-09-07T02:16:51;8.80;;;8.10;;
14688;SDS011;7432;48.728;9.154;2023-09-07T02:19:18;7.63;;;7.13;;
14688;SDS011;7432;48.728;9.154;2023-09-07T02:21:47;8.63;;;8.13;;
14688;SDS011;7432;48.728;9.154;2023-09-07T02:24:14;9.03;;;8.43;;
14688;SDS011;7432;48.728;9.154;2023-09-07T02:26:40;8.73;;;8.07;;
14688;SDS011;7432;48.728;9.154;2023-09-07T02:29:10;8.47;;;7.87;;
14688;SDS011;7432;48.728;9.154;2023-09-07T02:31:37;9.00;;;8.30;;
14688;SDS011;7432;48.728;9.154;2023-09-07T02:34:04;8.70;;;7.90;;
14688;SDS011;7432;48.728;9.154;2023-09-07T02:36:30;9.07;;;8.40;;
14688;SDS011;7432;48.728;9.154;2023-09-07T02:38:57;9.40;;;8.70;;
14688;SDS011;7432;48.728;9.154;2023-09-07T02:41:23;9.27;;;8.67;;
14688;SDS011;7432;48.728;9.154;2023-09-07T02:43:50;8.60;;;8.00;;
14688;SDS011;7432;48.728;9.154;2023-09-07T02:46:16;7.23;;;6.70;;
14688;SDS011;7432;48.728;9.154;2023-09-07T02:48:44;8.10;;;7.60;;
14688;SDS011;7432;48.728;9.154;2023-09-07T02:51:10;8.87;;;8.17;;
14688;SDS011;7432;48.728;9.154;2023-09-07T02:53:37;8.40;;;7.90;;
14688;SDS011;7432;48.728;9.154;2023-09-07T02:56:03;8.43;;;7.77;;
14688;SDS011;7432;48.728;9.154;2023-09-07T02:58:30;8.77;;;8.17;;
14688;SDS011;7432;48.728;9.154;2023-09-07T03:00:56;8.97;;;8.27;;
14688;SDS011;7432;48.728;9.154;2023-09-07T03:03:23;9.30;;;8.67;;
14688;SDS011;7432;48.728;9.154;2023-09-07T03:05:50;9.30;;;8.70;;
14688;SDS011;7432;48.728;9.154;2023-09-07T03:08:17;9.27;;;8.40;;
14688;SDS011;7432;48.728;9.154;2023-09-07T03:10:43;8.90;;;8.30;;
14688;SDS011;7432;48.728;9.154;2023-09-07T03:13:09;9.40;;;8.70;;
14688;SDS011;7432;48.728;9.154;2023-09-07T03:15:36;9.80;;;9.10;;
14688;SDS011;7432;48.728;9.154;2023-09-07T03:18:03;9.70;;;9.00;;
14688;SDS011;7432;48.728;9.154;2023-09-07T03:20:30;9.50;;;8.70;;
14688;SDS011;7432;48.728;9.154;2023-09-07T03:23:00;7.90;;;7.30;;
14688;SDS011;7432;48.728;9.154;2023-09-07T03:25:27;10.03;;;9.30;;
14688;SDS011;7432;48.728;9.154;2023-09-07T03:27:53;9.10;;;8.47;;
14688;SDS011;7432;48.728;9.154;2023-09-07T03:30:20;10.03;;;9.33;;
14688;SDS011;7432;48.728;9.154;2023-09-07T03:32:46;9.60;;;8.90;;
14688;SDS011;7432;48.728;9.154;2023-09-07T03:35:12;9.63;;;9.00;;
14688;SDS011;7432;48.728;9.154;2023-09-07T03:37:41;9.40;;;8.80;;
14688;SDS011;7432;48.728;9.154;2023-09-07T03:40:09;9.90;;;9.03;;
14688;SDS011;7432;48.728;9.154;2023-09-07T03:42:36;9.03;;;8.43;;
14688;SDS011;7432;48.728;9.154;2023-09-07T03:47:29;9.10;;;8.33;;
14688;SDS011;7432;48.728;9.154;2023-09-07T03:49:56;9.00;;;8.30;;
14688;SDS011;7432;48.728;9.154;2023-09-07T03:52:23;7.83;;;7.33;;
14688;SDS011;7432;48.728;9.154;2023-09-07T03:54:51;9.70;;;9.00;;
14688;SDS011;7432;48.728;9.154;2023-09-07T03:57:20;9.40;;;8.70;;
14688;SDS011;7432;48.728;9.154;2023-09-07T03:59:47;8.57;;;8.00;;
14688;SDS011;7432;48.728;9.154;2023-09-07T04:02:14;9.60;;;8.90;;
14688;SDS011;7432;48.728;9.154;2023-09-07T04:04:40;8.60;;;7.90;;
14688;SDS011;7432;48.728;9.154;2023-09-07T04:07:07;9.50;;;8.70;;
14688;SDS011;7432;48.728;9.154;2023-09-07T04:09:33;10.03;;;9.33;;
14688;SDS011;7432;48.728;9.154;2023-09-07T04:12:00;9.57;;;8.80;;
14688;SDS011;7432;48.728;9.154;2023-09-07T04:14:30;10.03;;;9.20;;
14688;SDS011;7432;48.728;9.154;2023-09-07T04:16:56;9.27;;;8.47;;
14688;SDS011;7432;48.728;9.154;2023-09-07T04:19:22;10.00;;;9.30;;
14688;SDS011;7432;48.728;9.154;2023-09-07T04:21:49;9.80;;;9.10;;
14688;SDS011;7432;48.728;9.154;2023-09-07T04:24:16;10.00;;;9.20;;
14688;SDS011;7432;48.728;9.154;2023-09-07T04:26:42;9.47;;;8.77;;
14688;SDS011;7432;48.728;9.154;2023-09-07T04:29:09;9.53;;;8.83;;
14688;SDS011;7432;48.728;9.154;2023-09-07T04:31:38;9.83;;;9.00;;
14688;SDS011;7432;48.728;9.154;2023-09-07T04:34:04;9.70;;;9.10;;
14688;SDS011;7432;48.728;9.154;2023-09-07T04:36:31;10.23;;;9.53;;
14688;SDS011;7432;48.728;9.154;2023-09-07T04:38:57;9.77;;;9.07;;
14688;SDS011;7432;48.728;9.154;2023-09-07T04:41:23;10.07;;;9.30;;
14688;SDS011;7432;48.728;9.154;2023-09-07T04:43:50;9.80;;;9.07;;
14688;SDS011;7432;48.728;9.154;2023-09-07T04:46:16;9.60;;;8.90;;
14688;SDS011;7432;48.728;9.154;2023-09-07T04:48:44;10.77;;;9.87;;
14688;SDS011;7432;48.728;9.154;2023-09-07T04:51:10;10.47;;;9.67;;
14688;SDS011;7432;48.728;9.154;2023-09-07T04:53:38;9.90;;;9.13;;
14688;SDS011;7432;48.728;9.154;2023-09-07T04:56:05;9.50;;;8.70;;
14688;SDS011;7432;48.728;9.154;2023-09-07T04:58:34;10.53;;;9.83;;
14688;SDS011;7432;48.728;9.154;2023-09-07T05:01:01;9.87;;;9.07;;
14688;SDS011;7432;48.728;9.154;2023-09-07T05:03:27;10.60;;;9.80;;
14688;SDS011;7432;48.728;9.154;2023-09-07T05:05:55;9.60;;;8.87;;
14688;SDS011;7432;48.728;9.154;2023-09-07T05:08:21;10.60;;;9.80;;
14688;SDS011;7432;48.728;9.154;2023-09-07T05:10:51;9.87;;;9.07;;
14688;SDS011;7432;48.728;9.154;2023-09-07T05:13:20;9.97;;;9.17;;
14688;SDS011;7432;48.728;9.154;2023-09-07T05:15:47;10.97;;;10.07;;
14688;SDS011;7432;48.728;9.154;2023-09-07T05:18:14;10.60;;;9.90;;
14688;SDS011;7432;48.728;9.154;2023-09-07T05:20:41;10.23;;;9.40;;
14688;SDS011;7432;48.728;9.154;2023-09-07T05:23:08;10.07;;;9.27;;
14688;SDS011;7432;48.728;9.154;2023-09-07T05:25:42;9.70;;;9.00;;
14688;SDS011;7432;48.728;9.154;2023-09-07T05:28:09;9.50;;;8.70;;
14688;SDS011;7432;48.728;9.154;2023-09-07T05:30:35;10.57;;;9.77;;
14688;SDS011;7432;48.728;9.154;2023-09-07T05:33:01;9.30;;;8.67;;
14688;SDS011;7432;48.728;9.154;2023-09-07T05:35:28;10.53;;;9.63;;
14688;SDS011;7432;48.728;9.154;2023-09-07T05:37:57;10.00;;;9.13;;
14688;SDS011;7432;48.728;9.154;2023-09-07T05:40:25;10.40;;;9.70;;
14688;SDS011;7432;48.728;9.154;2023-09-07T05:42:51;10.63;;;9.90;;
14688;SDS011;7432;48.728;9.154;2023-09-07T05:45:17;10.87;;;9.97;;
14688;SDS011;7432;48.728;9.154;2023-09-07T05:47:44;10.87;;;9.87;;
14688;SDS011;7432;48.728;9.154;2023-09-07T05:50:10;10.53;;;9.83;;
14688;SDS011;7432;48.728;9.154;2023-09-07T05:52:37;11.37;;;10.30;;
14688;SDS011;7432;48.728;9.154;2023-09-07T05:55:03;11.40;;;10.50;;
14688;SDS011;7432;48.728;9.154;2023-09-07T05:57:32;10.63;;;9.83;;
14688;SDS011;7432;48.728;9.154;2023-09-07T05:59:58;11.27;;;10.47;;
14688;SDS011;7432;48.728;9.154;2023-09-07T06:02:24;11.20;;;10.13;;
14688;SDS011;7432;48.728;9.154;2023-09-07T06:04:51;11.37;;;10.40;;
14688;SDS011;7432;48.728;9.154;2023-09-07T06:07:18;11.40;;;10.30;;
14688;SDS011;7432;48.728;9.154;2023-09-07T06:09:44;12.13;;;11.03;;
14688;SDS011;7432;48.728;9.154;2023-09-07T06:12:11;13.20;;;12.03;;
14688;SDS011;7432;48.728;9.154;2023-09-07T06:14:39;13.20;;;12.00;;
14688;SDS011;7432;48.728;9.154;2023-09-07T06:17:05;13.97;;;12.57;;
14688;SDS011;7432;48.728;9.154;2023-09-07T06:19:31;13.30;;;12.10;;
14688;SDS011;7432;48.728;9.154;2023-09-07T06:21:58;13.23;;;12.03;;
14688;SDS011;7432;48.728;9.154;2023-09-07T06:24:25;12.20;;;11.17;;
14688;SDS011;7432;48.728;9.154;2023-09-07T06:26:51;10.83;;;10.03;;
14688;SDS011;7432;48.728;9.154;2023-09-07T06:29:18;11.47;;;10.57;;
14688;SDS011;7432;48.728;9.154;2023-09-07T06:31:45;11.23;;;10.37;;
14688;SDS011;7432;48.728;9.154;2023-09-07T06:34:14;11.07;;;10.20;;
14688;SDS011;7432;48.728;9.154;2023-09-07T06:36:41;11.75;;;10.75;;
14688;SDS011;7432;48.728;9.154;2023-09-07T06:39:07;12.85;;;11.85;;
14688;SDS011;7432;48.728;9.154;2023-09-07T06:41:34;13.00;;;12.00;;
14688;SDS011;7432;48.728;9.154;2023-09-07T06:44:00;13.82;;;12.82;;
14688;SDS011;7432;48.728;9.154;2023-09-07T06:46:27;13.98;;;12.77;;
14688;SDS011;7432;48.728;9.154;2023-09-07T06:48:55;14.02;;;12.93;;
14688;SDS011;7432;48.728;9.154;2023-09-07T06:51:21;13.13;;;12.32;;
14688;SDS011;7432;48.728;9.154;2023-09-07T06:53:47;13.20;;;12.30;;
14688;SDS011;7432;48.728;9.154;2023-09-07T06:56:15;12.95;;;12.10;;
14688;SDS011;7432;48.728;9.154;2023-09-07T06:58:41;12.90;;;12.00;;
14688;SDS011;7432;48.728;9.154;2023-09-07T07:01:08;14.18;;;13.07;;
14688;SDS011;7432;48.728;9.154;2023-09-07T07:03:34;14.38;;;13.18;;
14688;SDS011;7432;48.728;9.154;2023-09-07T07:06:02;15.02;;;13.20;;
14688;SDS011;7432;48.728;9.154;2023-09-07T07:08:28;14.63;;;13.50;;
14688;SDS011;7432;48.728;9.154;2023-09-07T07:10:54;13.43;;;12.53;;
14688;SDS011;7432;48.728;9.154;2023-09-07T07:13:21;13.90;;;12.80;;
14688;SDS011;7432;48.728;9.154;2023-09-07T07:15:47;14.25;;;13.15;;
14688;SDS011;7432;48.728;9.154;2023-09-07T07:18:14;14.32;;;13.32;;
14688;SDS011;7432;48.728;9.154;2023-09-07T07:20:40;13.15;;;12.30;;
14688;SDS011;7432;48.728;9.154;2023-09-07T07:23:10;13.23;;;12.43;;
14688;SDS011;7432;48.728;9.154;2023-09-07T07:25:37;12.63;;;11.77;;
14688;SDS011;7432;48.728;9.154;2023-09-07T07:28:04;13.02;;;11.88;;
14688;SDS011;7432;48.728;9.154;2023-09-07T07:30:31;13.63;;;12.43;;
14688;SDS011;7432;48.728;9.154;2023-09-07T07:32:57;12.23;;;11.48;;
14688;SDS011;7432;48.728;9.154;2023-09-07T07:35:24;13.02;;;12.15;;
14688;SDS011;7432;48.728;9.154;2023-09-07T07:37:50;13.32;;;12.43;;
14688;SDS011;7432;48.728;9.154;2023-09-07T07:40:18;14.00;;;12.77;;
14688;SDS011;7432;48.728;9.154;2023-09-07T07:42:45;13.77;;;12.75;;
14688;SDS011;7432;48.728;9.154;2023-09-07T07:45:12;13.15;;;12.05;;
14688;SDS011;7432;48.728;9.154;2023-09-07T07:47:39;14.48;;;13.10;;
14688;SDS011;7432;48.728;9.154;2023-09-07T07:50:06;14.07;;;12.77;;
14688;SDS011;7432;48.728;9.154;2023-09-07T07:52:33;13.30;;;12.23;;
14688;SDS011;7432;48.728;9.154;2023-09-07T07:55:00;14.02;;;13.05;;
14688;SDS011;7432;48.728;9.154;2023-09-07T07:57:28;14.25;;;13.25;;
14688;SDS011;7432;48.728;9.154;2023-09-07T07:59:55;15.15;;;14.05;;
14688;SDS011;7432;48.728;9.154;2023-09-07T08:02:21;15.00;;;13.80;;
14688;SDS011;7432;48.728;9.154;2023-09-07T08:04:48;15.27;;;14.18;;
14688;SDS011;7432;48.728;9.154;2023-09-07T08:07:14;16.27;;;14.95;;
14688;SDS011;7432;48.728;9.154;2023-09-07T08:09:41;14.25;;;13.25;;
14688;SDS011;7432;48.728;9.154;2023-09-07T08:12:07;15.10;;;14.20;;
14688;SDS011;7432;48.728;9.154;2023-09-07T08:14:35;15.45;;;14.18;;
14688;SDS011;7432;48.728;9.154;2023-09-07T08:17:01;15.02;;;13.85;;
14688;SDS011;7432;48.728;9.154;2023-09-07T08:19:28;14.80;;;13.90;;
14688;SDS011;7432;48.728;9.154;2023-09-07T08:21:54;14.95;;;13.95;;
14688;SDS011;7432;48.728;9.154;2023-09-07T08:24:21;14.60;;;13.60;;
14688;SDS011;7432;48.728;9.154;2023-09-07T08:26:47;15.30;;;14.30;;
14688;SDS011;7432;48.728;9.154;2023-09-07T08:29:16;13.35;;;12.45;;
14688;SDS011;7432;48.728;9.154;2023-09-07T08:31:46;15.38;;;14.30;;
14688;SDS011;7432;48.728;9.154;2023-09-07T08:34:13;14.10;;;13.27;;
14688;SDS011;7432;48.728;9.154;2023-09-07T08:36:40;14.60;;;13.70;;
14688;SDS011;7432;48.728;9.154;2023-09-07T08:39:07;14.75;;;13.70;;
14688;SDS011;7432;48.728;9.154;2023-09-07T08:41:36;14.68;;;13.60;;
14688;SDS011;7432;48.728;9.154;2023-09-07T08:44:06;12.63;;;11.82;;
14688;SDS011;7432;48.728;9.154;2023-09-07T08:46:34;13.70;;;12.93;;
14688;SDS011;7432;48.728;9.154;2023-09-07T08:49:02;13.50;;;12.73;;
14688;SDS011;7432;48.728;9.154;2023-09-07T08:51:29;14.68;;;13.70;;
14688;SDS011;7432;48.728;9.154;2023-09-07T08:53:57;14.55;;;13.40;;
14688;SDS011;7432;48.728;9.154;2023-09-07T08:56:24;13.25;;;12.43;;
14688;SDS011;7432;48.728;9.154;2023-09-07T08:58:51;14.18;;;13.13;;
14688;SDS011;7432;48.728;9.154;2023-09-07T09:01:17;14.80;;;13.70;;
14688;SDS011;7432;48.728;9.154;2023-09-07T09:03:46;13.55;;;12.75;;
14688;SDS011;7432;48.728;9.154;2023-09-07T09:06:15;13.90;;;12.93;;
14688;SDS011;7432;48.728;9.154;2023-09-07T09:08:44;14.85;;;13.80;;
14688;SDS011;7432;48.728;9.154;2023-09-07T09:11:12;14.30;;;12.90;;
14688;SDS011;7432;48.728;9.154;2023-09-07T09:13:39;14.40;;;13.40;;
14688;SDS011;7432;48.728;9.154;2023-09-07T09:16:06;14.75;;;13.85;;
14688;SDS011;7432;48.728;9.154;2023-09-07T09:18:32;13.77;;;12.90;;
14688;SDS011;7432;48.728;9.154;2023-09-07T09:20:59;14.10;;;13.25;;
14688;SDS011;7432;48.728;9.154;2023-09-07T09:23:31;14.48;;;13.40;;
14688;SDS011;7432;48.728;9.154;2023-09-07T09:25:59;12.75;;;12.05;;
14688;SDS011;7432;48.728;9.154;2023-09-07T09:28:25;13.93;;;12.93;;
14688;SDS011;7432;48.728;9.154;2023-09-07T09:30:52;12.98;;;12.00;;
14688;SDS011;7432;48.728;9.154;2023-09-07T09:33:19;13.70;;;12.77;;
14688;SDS011;7432;48.728;9.154;2023-09-07T09:35:45;13.18;;;12.38;;
14688;SDS011;7432;48.728;9.154;2023-09-07T09:38:13;13.77;;;12.77;;
14688;SDS011;7432;48.728;9.154;2023-09-07T09:40:41;13.85;;;13.02;;
14688;SDS011;7432;48.728;9.154;2023-09-07T09:43:08;13.10;;;12.30;;
14688;SDS011;7432;48.728;9.154;2023-09-07T09:45:36;13.75;;;12.68;;
14688;SDS011;7432;48.728;9.154;2023-09-07T09:48:04;13.18;;;12.35;;
14688;SDS011;7432;48.728;9.154;2023-09-07T09:50:32;13.35;;;12.55;;
14688;SDS011;7432;48.728;9.154;2023-09-07T09:53:02;13.48;;;12.68;;
14688;SDS011;7432;48.728;9.154;2023-09-07T09:55:30;14.70;;;13.70;;
14688;SDS011;7432;48.728;9.154;2023-09-07T09:57:58;15.63;;;14.52;;
14688;SDS011;7432;48.728;9.154;2023-09-07T10:00:25;15.75;;;14.63;;
14688;SDS011;7432;48.728;9.154;2023-09-07T10:02:57;15.68;;;14.77;;
14688;SDS011;7432;48.728;9.154;2023-09-07T10:05:27;15.60;;;14.70;;
14688;SDS011;7432;48.728;9.154;2023-09-07T10:07:59;16.17;;;15.18;;
14688;SDS011;7432;48.728;9.154;2023-09-07T10:10:31;16.50;;;15.15;;
14688;SDS011;7432;48.728;9.154;2023-09-07T10:13:01;16.50;;;15.50;;
14688;SDS011;7432;48.728;9.154;2023-09-07T10:15:28;16.20;;;15.10;;
14688;SDS011;7432;48.728;9.154;2023-09-07T10:18:02;15.40;;;14.43;;
14688;SDS011;7432;48.728;9.154;2023-09-07T10:20:34;16.83;;;15.73;;
14688;SDS011;7432;48.728;9.154;2023-09-07T10:23:12;17.92;;;16.30;;
14688;SDS011;7432;48.728;9.154;2023-09-07T10:25:38;16.95;;;15.85;;
14688;SDS011;7432;48.728;9.154;2023-09-07T10:28:07;16.73;;;15.52;;
14688;SDS011;7432;48.728;9.154;2023-09-07T10:30:44;15.68;;;14.57;;
14688;SDS011;7432;48.728;9.154;2023-09-07T10:33:18;15.90;;;14.77;;
14688;SDS011;7432;48.728;9.154;2023-09-07T10:35:45;15.75;;;14.50;;
14688;SDS011;7432;48.728;9.154;2023-09-07T10:38:13;16.48;;;15.18;;
14688;SDS011;7432;48.728;9.154;2023-09-07T10:40:39;15.57;;;14.50;;
14688;SDS011;7432;48.728;9.154;2023-09-07T10:43:08;14.98;;;13.88;;
14688;SDS011;7432;48.728;9.154;2023-09-07T10:45:35;16.13;;;14.98;;
14688;SDS011;7432;48.728;9.154;2023-09-07T10:48:01;16.48;;;15.18;;
14688;SDS011;7432;48.728;9.154;2023-09-07T10:50:29;16.88;;;15.82;;
14688;SDS011;7432;48.728;9.154;2023-09-07T10:52:55;16.15;;;14.95;;
14688;SDS011;7432;48.728;9.154;2023-09-07T10:55:22;16.73;;;15.63;;
14688;SDS011;7432;48.728;9.154;2023-09-07T10:57:48;16.10;;;14.85;;
14688;SDS011;7432;48.728;9.154;2023-09-07T11:00:16;16.50;;;15.32;;
14688;SDS011;7432;48.728;9.154;2023-09-07T11:02:43;16.20;;;15.10;;
14688;SDS011;7432;48.728;9.154;2023-09-07T11:05:09;15.57;;;14.57;;
14688;SDS011;7432;48.728;9.154;2023-09-07T11:07:36;16.20;;;15.00;;
14688;SDS011;7432;48.728;9.154;2023-09-07T11:10:04;16.70;;;15.65;;
14688;SDS011;7432;48.728;9.154;2023-09-07T11:12:35;16.23;;;15.13;;
14688;SDS011;7432;48.728;9.154;2023-09-07T11:15:03;15.90;;;14.90;;
14688;SDS011;7432;48.728;9.154;2023-09-07T11:17:31;16.30;;;15.00;;
14688;SDS011;7432;48.728;9.154;2023-09-07T11:19:58;15.07;;;14.18;;
14688;SDS011;7432;48.728;9.154;2023-09-07T11:22:24;16.33;;;15.13;;
14688;SDS011;7432;48.728;9.154;2023-09-07T11:24:50;16.17;;;15.02;;
14688;SDS011;7432;48.728;9.154;2023-09-07T11:27:17;15.75;;;14.65;;
14688;SDS011;7432;48.728;9.154;2023-09-07T11:29:50;15.82;;;14.63;;
14688;SDS011;7432;48.728;9.154;2023-09-07T11:32:17;15.68;;;14.48;;
14688;SDS011;7432;48.728;9.154;2023-09-07T11:34:48;16.88;;;15.52;;
14688;SDS011;7432;48.728;9.154;2023-09-07T11:37:15;16.50;;;15.30;;
14688;SDS011;7432;48.728;9.154;2023-09-07T11:39:42;16.58;;;15.48;;
14688;SDS011;7432;48.728;9.154;2023-09-07T11:42:08;15.88;;;14.88;;
14688;SDS011;7432;48.728;9.154;2023-09-07T11:44:35;16.90;;;15.60;;
14688;SDS011;7432;48.728;9.154;2023-09-07T11:47:01;15.52;;;14.38;;
14688;SDS011;7432;48.728;9.154;2023-09-07T11:49:28;16.45;;;15.35;;
14688;SDS011;7432;48.728;9.154;2023-09-07T11:51:56;16.05;;;14.95;;
14688;SDS011;7432;48.728;9.154;2023-09-07T11:54:23;15.93;;;14.82;;
14688;SDS011;7432;48.728;9.154;2023-09-07T11:56:49;16.42;;;15.38;;
14688;SDS011;7432;48.728;9.154;2023-09-07T11:59:15;16.00;;;14.65;;
14688;SDS011;7432;48.728;9.154;2023-09-07T12:01:42;15.60;;;14.50;;
14688;SDS011;7432;48.728;9.154;2023-09-07T12:04:09;20.42;;;13.95;;
14688;SDS011;7432;48.728;9.154;2023-09-07T12:06:35;14.63;;;13.60;;
14688;SDS011;7432;48.728;9.154;2023-09-07T12:09:04;16.75;;;15.45;;
14688;SDS011;7432;48.728;9.154;2023-09-07T12:11:34;16.63;;;15.30;;
14688;SDS011;7432;48.728;9.154;2023-09-07T12:14:00;16.08;;;14.98;;
14688;SDS011;7432;48.728;9.154;2023-09-07T12:16:27;16.27;;;15.07;;
14688;SDS011;7432;48.728;9.154;2023-09-07T12:18:54;16.88;;;15.77;;
14688;SDS011;7432;48.728;9.154;2023-09-07T12:21:20;16.65;;;15.38;;
14688;SDS011;7432;48.728;9.154;2023-09-07T12:23:47;16.17;;;14.98;;
14688;SDS011;7432;48.728;9.154;2023-09-07T12:26:14;16.15;;;15.05;;
14688;SDS011;7432;48.728;9.154;2023-09-07T12:28:41;16.63;;;15.38;;
14688;SDS011;7432;48.728;9.154;2023-09-07T12:31:09;16.52;;;15.23;;
14688;SDS011;7432;48.728;9.154;2023-09-07T12:33:36;16.50;;;15.38;;
14688;SDS011;7432;48.728;9.154;2023-09-07T12:36:03;16.30;;;15.20;;
14688;SDS011;7432;48.728;9.154;2023-09-07T12:38:34;16.38;;;15.27;;
14688;SDS011;7432;48.728;9.154;2023-09-07T12:41:00;17.02;;;15.82;;
14688;SDS011;7432;48.728;9.154;2023-09-07T12:43:28;16.42;;;15.23;;
14688;SDS011;7432;48.728;9.154;2023-09-07T12:45:55;16.35;;;15.35;;
14688;SDS011;7432;48.728;9.154;2023-09-07T12:48:21;16.40;;;15.40;;
14688;SDS011;7432;48.728;9.154;2023-09-07T12:50:48;16.17;;;15.07;;
14688;SDS011;7432;48.728;9.154;2023-09-07T12:53:14;16.17;;;15.18;;
14688;SDS011;7432;48.728;9.154;2023-09-07T12:55:41;15.98;;;14.98;;
14688;SDS011;7432;48.728;9.154;2023-09-07T12:58:07;16.35;;;15.25;;
14688;SDS011;7432;48.728;9.154;2023-09-07T13:00:35;16.52;;;15.43;;
14688;SDS011;7432;48.728;9.154;2023-09-07T13:03:01;16.20;;;15.10;;
14688;SDS011;7432;48.728;9.154;2023-09-07T13:05:28;15.15;;;14.15;;
14688;SDS011;7432;48.728;9.154;2023-09-07T13:07:54;15.30;;;14.30;;
14688;SDS011;7432;48.728;9.154;2023-09-07T13:10:22;15.68;;;14.68;;
14688;SDS011;7432;48.728;9.154;2023-09-07T13:12:49;16.02;;;14.93;;
14688;SDS011;7432;48.728;9.154;2023-09-07T13:15:15;15.95;;;14.75;;
14688;SDS011;7432;48.728;9.154;2023-09-07T13:17:43;15.75;;;14.63;;
14688;SDS011;7432;48.728;9.154;2023-09-07T13:20:10;16.33;;;15.13;;
14688;SDS011;7432;48.728;9.154;2023-09-07T13:22:37;15.70;;;14.60;;
14688;SDS011;7432;48.728;9.154;2023-09-07T13:25:04;16.13;;;15.02;;
14688;SDS011;7432;48.728;9.154;2023-09-07T13:27:31;15.90;;;14.90;;
14688;SDS011;7432;48.728;9.154;2023-09-07T13:29:57;15.90;;;14.80;;
14688;SDS011;7432;48.728;9.154;2023-09-07T13:32:23;16.05;;;15.00;;
14688;SDS011;7432;48.728;9.154;2023-09-07T13:34:51;16.02;;;14.93;;
14688;SDS011;7432;48.728;9.154;2023-09-07T13:37:18;14.98;;;13.98;;
14688;SDS011;7432;48.728;9.154;2023-09-07T13:39:44;15.82;;;14.73;;
14688;SDS011;7432;48.728;9.154;2023-09-07T13:42:10;15.32;;;14.35;;
14688;SDS011;7432;48.728;9.154;2023-09-07T13:44:37;15.15;;;14.25;;
14688;SDS011;7432;48.728;9.154;2023-09-07T13:47:03;15.07;;;14.07;;
14688;SDS011;7432;48.728;9.154;2023-09-07T13:49:30;15.68;;;14.45;;
14688;SDS011;7432;48.728;9.154;2023-09-07T13:51:57;15.50;;;14.60;;
14688;SDS011;7432;48.728;9.154;2023-09-07T13:54:24;15.68;;;14.68;;
14688;SDS011;7432;48.728;9.154;2023-09-07T13:56:50;15.63;;;14.63;;
14688;SDS011;7432;48.728;9.154;2023-09-07T13:59:16;14.30;;;13.30;;
14688;SDS011;7432;48.728;9.154;2023-09-07T14:01:43;14.52;;;13.63;;
14688;SDS011;7432;48.728;9.154;2023-09-07T14:04:09;14.35;;;13.32;;
14688;SDS011;7432;48.728;9.154;2023-09-07T14:06:35;14.32;;;13.43;;
14688;SDS011;7432;48.728;9.154;2023-09-07T14:09:03;14.55;;;13.60;;
14688;SDS011;7432;48.728;9.154;2023-09-07T14:11:31;14.10;;;13.13;;
14688;SDS011;7432;48.728;9.154;2023-09-07T14:13:58;14.13;;;13.32;;
14688;SDS011;7432;48.728;9.154;2023-09-07T14:16:24;14.10;;;13.27;;
14688;SDS011;7432;48.728;9.154;2023-09-07T14:18:51;14.15;;;13.15;;
14688;SDS011;7432;48.728;9.154;2023-09-07T14:21:17;14.07;;;13.10;;
14688;SDS011;7432;48.728;9.154;2023-09-07T14:23:44;14.57;;;13.35;;
14688;SDS011;7432;48.728;9.154;2023-09-07T14:26:11;14.48;;;13.48;;
14688;SDS011;7432;48.728;9.154;2023-09-07T14:28:38;13.45;;;12.65;;
14688;SDS011;7432;48.728;9.154;2023-09-07T14:31:04;13.45;;;12.63;;
14688;SDS011;7432;48.728;9.154;2023-09-07T14:33:31;13.30;;;12.45;;
14688;SDS011;7432;48.728;9.154;2023-09-07T14:35:58;13.55;;;12.65;;
14688;SDS011;7432;48.728;9.154;2023-09-07T14:38:25;13.18;;;12.25;;
14688;SDS011;7432;48.728;9.154;2023-09-07T14:40:52;13.52;;;12.73;;
14688;SDS011;7432;48.728;9.154;2023-09-07T14:43:21;13.20;;;12.40;;
14688;SDS011;7432;48.728;9.154;2023-09-07T14:45:47;13.90;;;13.00;;